Time;durP1;ratioP1;P1;durP2;ratioP2;P2;SDS_P1;SDS_P2;PMS_P1;PMS_P2;Temp;Humidity;BMP_temperature;BMP_pressure;BME280_temperature;BME280_humidity;BME280_pressure;Samples;Min_cycle;Max_cycle;Signal;HPM_P1;HPM_P2
2021/08/01 00:00:58;;;;;;;0.00;0.00;;;;;;;;;;10475099;28;20037;-27
2021/08/01 00:06:03;;;;;;;0.00;0.00;;;;;;;;;;10454489;28;20048;-27
2021/08/01 00:11:05;;;;;;;0.10;0.10;;;;;;;;;;10471273;28;20129;-27
2021/08/01 00:16:08;;;;;;;0.10;0.10;;;;;;;;;;10474147;28;20051;-28
2021/08/01 00:21:12;;;;;;;0.00;0.00;;;;;;;;;;10473343;28;20802;-27
2021/08/01 00:26:15;;;;;;;0.00;0.00;;;;;;;;;;10473458;28;20051;-26
2021/08/01 00:31:18;;;;;;;0.10;0.10;;;;;;;;;;10473863;28;20052;-28
2021/08/01 00:36:23;;;;;;;0.10;0.10;;;;;;;;;;10456667;28;20052;-28
2021/08/01 00:41:25;;;;;;;0.00;0.00;;;;;;;;;;10471867;28;21284;-28
2021/08/01 00:46:28;;;;;;;0.00;0.00;;;;;;;;;;10471383;28;20056;-27
2021/08/01 00:51:32;;;;;;;0.30;0.10;;;;;;;;;;10477287;28;20151;-27
2021/08/01 00:56:35;;;;;;;0.00;0.00;;;;;;;;;;10480904;28;20048;-29
2021/08/01 01:01:40;;;;;;;0.03;0.03;;;;;;;;;;10462344;28;20049;-27
2021/08/01 01:06:53;;;;;;;0.00;0.00;;;;;;;;;;10461614;28;20076;-27
2021/08/01 01:11:57;;;;;;;0.00;0.00;;;;;;;;;;10478763;28;20045;-27
2021/08/01 01:17:01;;;;;;;0.10;0.10;;;;;;;;;;10459072;28;20114;-27
2021/08/01 01:22:07;;;;;;;0.10;0.10;;;;;;;;;;10460061;28;20778;-26
2021/08/01 01:27:22;;;;;;;0.00;0.00;;;;;;;;;;10462075;28;20051;-26
2021/08/01 01:32:27;;;;;;;0.10;0.10;;;;;;;;;;10459739;28;20051;-26
2021/08/01 01:37:32;;;;;;;0.03;0.03;;;;;;;;;;10479593;28;20036;-26
2021/08/01 01:42:39;;;;;;;0.10;0.10;;;;;;;;;;10459089;28;20044;-25
2021/08/01 01:47:44;;;;;;;0.00;0.00;;;;;;;;;;10478878;28;20056;-26
2021/08/01 01:52:49;;;;;;;0.00;0.00;;;;;;;;;;10476920;28;20040;-26
2021/08/01 01:57:53;;;;;;;0.10;0.10;;;;;;;;;;10459274;28;20401;-26
2021/08/01 02:02:57;;;;;;;0.10;0.10;;;;;;;;;;10458030;28;20047;-26
2021/08/01 02:08:21;;;;;;;0.10;0.10;;;;;;;;;;10477658;28;20797;-26
2021/08/01 02:13:49;;;;;;;0.00;0.00;;;;;;;;;;10475407;28;20063;-26
2021/08/01 02:18:53;;;;;;;0.10;0.10;;;;;;;;;;10478079;28;20046;-26
2021/08/01 02:24:00;;;;;;;0.08;0.08;;;;;;;;;;10457469;28;20048;-26
2021/08/01 02:29:05;;;;;;;0.10;0.10;;;;;;;;;;10455906;28;20131;-26
2021/08/01 02:34:09;;;;;;;0.10;0.10;;;;;;;;;;10458297;28;20497;-25
2021/08/01 02:39:13;;;;;;;0.22;0.10;;;;;;;;;;10459167;28;20170;-27
2021/08/01 02:44:18;;;;;;;0.00;0.00;;;;;;;;;;10454500;28;20436;-26
2021/08/01 02:49:23;;;;;;;0.38;0.10;;;;;;;;;;10441799;28;20041;-25
2021/08/01 02:54:31;;;;;;;0.03;0.03;;;;;;;;;;10438697;28;20045;-27
2021/08/01 02:59:34;;;;;;;0.00;0.00;;;;;;;;;;10424637;28;20068;-28
2021/08/01 03:04:40;;;;;;;0.10;0.10;;;;;;;;;;10437279;28;20049;-26
2021/08/01 03:09:44;;;;;;;0.10;0.10;;;;;;;;;;10439444;28;20439;-26
2021/08/01 03:14:47;;;;;;;0.05;0.05;;;;;;;;;;10437390;28;20051;-25
2021/08/01 03:19:50;;;;;;;0.08;0.08;;;;;;;;;;10440213;28;20397;-26
2021/08/01 03:24:55;;;;;;;0.08;0.08;;;;;;;;;;10468749;28;20048;-26
2021/08/01 03:29:58;;;;;;;0.10;0.10;;;;;;;;;;10435592;28;20045;-26
2021/08/01 03:35:00;;;;;;;0.10;0.10;;;;;;;;;;10438113;28;20051;-26
2021/08/01 03:40:07;;;;;;;0.00;0.00;;;;;;;;;;10438312;28;20054;-26
2021/08/01 03:45:12;;;;;;;0.10;0.10;;;;;;;;;;10438640;28;20061;-26
2021/08/01 03:50:15;;;;;;;0.20;0.10;;;;;;;;;;10427036;28;20056;-27
2021/08/01 03:55:19;;;;;;;0.32;0.10;;;;;;;;;;10425392;28;20496;-26
2021/08/01 04:00:22;;;;;;;0.10;0.10;;;;;;;;;;10436104;28;20044;-26
2021/08/01 04:05:25;;;;;;;0.10;0.10;;;;;;;;;;10433607;28;20394;-26
2021/08/01 04:10:29;;;;;;;0.10;0.10;;;;;;;;;;10435810;28;20040;-27
2021/08/01 04:15:32;;;;;;;0.10;0.10;;;;;;;;;;10411891;28;20140;-27
2021/08/01 04:20:35;;;;;;;0.10;0.10;;;;;;;;;;10424839;28;20045;-27
2021/08/01 04:25:39;;;;;;;0.45;0.20;;;;;;;;;;10427708;28;20052;-26
2021/08/01 04:30:41;;;;;;;0.10;0.10;;;;;;;;;;10434256;28;20140;-26
2021/08/01 04:35:44;;;;;;;0.10;0.10;;;;;;;;;;10417433;28;20041;-26
2021/08/01 04:40:48;;;;;;;0.10;0.10;;;;;;;;;;10434804;28;20824;-26
2021/08/01 04:45:51;;;;;;;0.10;0.10;;;;;;;;;;10425771;28;20060;-26
2021/08/01 04:50:54;;;;;;;0.10;0.10;;;;;;;;;;10473661;28;20041;-27
2021/08/01 04:55:58;;;;;;;0.03;0.03;;;;;;;;;;10473745;28;20818;-26
2021/08/01 05:01:01;;;;;;;0.30;0.10;;;;;;;;;;10474502;28;20051;-26
2021/08/01 05:06:03;;;;;;;0.10;0.10;;;;;;;;;;10471681;28;20036;-26
2021/08/01 05:11:07;;;;;;;0.10;0.10;;;;;;;;;;10474337;28;20048;-26
2021/08/01 05:16:15;;;;;;;0.10;0.10;;;;;;;;;;10471707;28;20040;-26
2021/08/01 06:26:54;;;;;;;0.10;0.10;;;;;;;;;;10479675;28;20049;-27
2021/08/01 06:31:57;;;;;;;0.10;0.10;;;;;;;;;;10473624;28;20374;-27
2021/08/01 06:37:00;;;;;;;0.35;0.10;;;;;;;;;;10475667;28;20176;-27
2021/08/01 06:42:04;;;;;;;0.10;0.10;;;;;;;;;;10464157;28;20045;-26
2021/08/01 06:47:07;;;;;;;0.10;0.10;;;;;;;;;;10475980;28;20068;-27
2021/08/01 06:52:10;;;;;;;0.10;0.10;;;;;;;;;;10479931;28;20690;-28
2021/08/01 06:57:14;;;;;;;0.10;0.10;;;;;;;;;;10478022;28;20043;-30
2021/08/01 07:02:16;;;;;;;0.10;0.10;;;;;;;;;;10476446;28;20413;-27
2021/08/01 07:07:19;;;;;;;0.00;0.00;;;;;;;;;;10490821;28;20041;-27
2021/08/01 07:12:23;;;;;;;0.13;0.10;;;;;;;;;;10476222;28;20051;-29
2021/08/01 07:17:26;;;;;;;0.10;0.10;;;;;;;;;;10473916;28;20060;-28
2021/08/01 07:22:29;;;;;;;0.10;0.10;;;;;;;;;;10476930;28;20069;-28
2021/08/01 07:27:33;;;;;;;0.10;0.10;;;;;;;;;;10476389;28;20481;-28
2021/08/01 07:32:36;;;;;;;0.10;0.10;;;;;;;;;;10477063;28;20043;-27
2021/08/01 07:37:39;;;;;;;0.10;0.10;;;;;;;;;;10474536;28;20041;-27
2021/08/01 07:42:43;;;;;;;0.10;0.10;;;;;;;;;;10477806;28;20131;-29
2021/08/01 07:47:46;;;;;;;0.20;0.10;;;;;;;;;;10475477;28;20061;-28
2021/08/01 07:52:49;;;;;;;0.10;0.10;;;;;;;;;;10473597;28;20066;-27
2021/08/01 07:57:55;;;;;;;0.10;0.10;;;;;;;;;;10462067;28;20485;-31
2021/08/01 08:02:58;;;;;;;0.30;0.10;;;;;;;;;;10463355;28;20679;-27
2021/08/01 08:08:01;;;;;;;0.10;0.10;;;;;;;;;;10460924;28;20182;-28
2021/08/01 08:13:05;;;;;;;0.28;0.10;;;;;;;;;;10461869;28;20045;-27
2021/08/01 08:18:08;;;;;;;0.00;0.00;;;;;;;;;;10463061;28;20059;-27
2021/08/01 08:23:10;;;;;;;0.20;0.10;;;;;;;;;;10462596;28;20055;-28
2021/08/01 08:28:14;;;;;;;0.10;0.10;;;;;;;;;;10464081;28;20047;-27
2021/08/01 08:33:17;;;;;;;0.20;0.10;;;;;;;;;;10462367;28;20047;-27
2021/08/01 08:38:20;;;;;;;0.10;0.10;;;;;;;;;;10461600;28;20060;-27
2021/08/01 08:43:24;;;;;;;0.10;0.10;;;;;;;;;;10459468;28;20489;-27
2021/08/01 08:48:29;;;;;;;0.10;0.10;;;;;;;;;;10461957;28;20737;-28
2021/08/01 08:53:33;;;;;;;0.10;0.10;;;;;;;;;;10465582;28;20044;-29
2021/08/01 08:58:37;;;;;;;0.03;0.03;;;;;;;;;;10455387;28;20049;-27
2021/08/01 09:03:40;;;;;;;0.10;0.10;;;;;;;;;;10456610;28;20421;-28
2021/08/01 09:08:44;;;;;;;0.10;0.10;;;;;;;;;;10459743;28;20052;-28
2021/08/01 09:13:48;;;;;;;0.10;0.10;;;;;;;;;;10466106;28;20113;-28
2021/08/01 09:18:51;;;;;;;0.10;0.10;;;;;;;;;;10467318;28;20052;-28
2021/08/01 09:23:54;;;;;;;0.05;0.03;;;;;;;;;;10456771;28;20048;-27
2021/08/01 09:29:02;;;;;;;0.03;0.03;;;;;;;;;;10468233;28;20055;-28
2021/08/01 09:34:25;;;;;;;0.00;0.00;;;;;;;;;;10467254;28;20796;-27
2021/08/01 09:39:28;;;;;;;0.05;0.03;;;;;;;;;;10469938;28;20536;-28
2021/08/01 09:44:33;;;;;;;0.20;0.10;;;;;;;;;;10465043;28;20052;-29
2021/08/01 09:49:36;;;;;;;0.10;0.10;;;;;;;;;;10465057;28;20052;-28
2021/08/01 09:54:45;;;;;;;0.32;0.10;;;;;;;;;;10466659;28;20052;-28
2021/08/01 09:59:50;;;;;;;0.00;0.00;;;;;;;;;;10468588;28;20154;-27
2021/08/01 10:04:53;;;;;;;0.00;0.00;;;;;;;;;;10464988;28;20061;-27
2021/08/01 10:09:55;;;;;;;0.10;0.10;;;;;;;;;;10464501;28;20055;-27
2021/08/01 10:15:01;;;;;;;0.10;0.08;;;;;;;;;;10464462;28;20148;-29
2021/08/01 10:20:05;;;;;;;0.00;0.00;;;;;;;;;;10465539;28;20504;-27
2021/08/01 10:25:12;;;;;;;0.10;0.10;;;;;;;;;;10462708;28;20044;-27
2021/08/01 10:30:20;;;;;;;0.00;0.00;;;;;;;;;;10449965;28;20052;-28
2021/08/01 10:35:23;;;;;;;0.10;0.10;;;;;;;;;;10436637;28;20233;-28
2021/08/01 10:40:26;;;;;;;0.00;0.00;;;;;;;;;;10435132;28;20052;-27
2021/08/01 10:45:30;;;;;;;0.00;0.00;;;;;;;;;;10435545;28;20303;-27
2021/08/01 10:50:34;;;;;;;0.00;0.00;;;;;;;;;;10433081;28;20045;-27
2021/08/01 10:55:36;;;;;;;0.00;0.00;;;;;;;;;;10433464;28;20049;-27
2021/08/01 11:01:00;;;;;;;0.63;0.05;;;;;;;;;;10443248;28;20040;-27
2021/08/01 11:06:03;;;;;;;0.00;0.00;;;;;;;;;;10443876;28;20450;-27
2021/08/01 11:11:14;;;;;;;0.10;0.05;;;;;;;;;;10443725;28;20135;-27
2021/08/01 11:16:44;;;;;;;0.00;0.00;;;;;;;;;;10437292;28;20048;-28
2021/08/01 11:21:47;;;;;;;0.10;0.10;;;;;;;;;;10412443;28;20045;-27
2021/08/01 11:27:11;;;;;;;0.00;0.00;;;;;;;;;;10432369;28;20064;-27
2021/08/01 11:32:15;;;;;;;0.13;0.00;;;;;;;;;;10430656;28;20056;-27
2021/08/01 11:37:19;;;;;;;0.00;0.00;;;;;;;;;;10429157;28;20055;-27
2021/08/01 11:42:24;;;;;;;0.00;0.00;;;;;;;;;;10431608;28;20494;-28
2021/08/01 11:47:28;;;;;;;0.00;0.00;;;;;;;;;;10431701;28;20049;-27
2021/08/01 11:52:42;;;;;;;0.00;0.00;;;;;;;;;;10429699;28;20037;-27
2021/08/01 11:57:46;;;;;;;0.00;0.00;;;;;;;;;;10426701;28;20056;-27
2021/08/01 12:02:51;;;;;;;0.00;0.00;;;;;;;;;;10430564;28;20565;-27
2021/08/01 12:07:54;;;;;;;0.00;0.00;;;;;;;;;;10425039;28;20395;-28
2021/08/01 12:12:59;;;;;;;0.03;0.00;;;;;;;;;;10430208;28;20418;-29
2021/08/01 12:18:03;;;;;;;0.00;0.00;;;;;;;;;;10430105;28;20059;-28
2021/08/01 12:23:06;;;;;;;0.00;0.00;;;;;;;;;;10429468;28;20494;-26
2021/08/01 12:28:08;;;;;;;0.00;0.00;;;;;;;;;;10432215;28;20044;-26
2021/08/01 12:33:12;;;;;;;0.03;0.00;;;;;;;;;;10433879;28;20044;-24
2021/08/01 12:38:24;;;;;;;0.00;0.00;;;;;;;;;;10433174;28;20047;-24
2021/08/01 12:43:29;;;;;;;0.00;0.00;;;;;;;;;;10429849;28;20053;-25
2021/08/01 12:48:34;;;;;;;0.00;0.00;;;;;;;;;;10437240;28;20040;-27
2021/08/01 12:53:39;;;;;;;0.20;0.00;;;;;;;;;;10447579;28;20032;-24
2021/08/01 12:58:43;;;;;;;0.00;0.00;;;;;;;;;;10447175;28;20052;-24
2021/08/01 13:03:48;;;;;;;0.00;0.00;;;;;;;;;;10450722;28;20025;-25
2021/08/01 13:08:52;;;;;;;0.00;0.00;;;;;;;;;;10447671;28;20182;-25
2021/08/01 13:13:56;;;;;;;0.10;0.00;;;;;;;;;;10448194;28;20486;-25
2021/08/01 13:19:10;;;;;;;0.00;0.00;;;;;;;;;;10446061;28;20048;-25
2021/08/01 13:24:14;;;;;;;0.00;0.00;;;;;;;;;;10450305;28;20044;-25
2021/08/01 13:29:20;;;;;;;0.00;0.00;;;;;;;;;;10441274;28;20136;-25
2021/08/01 13:34:38;;;;;;;0.00;0.00;;;;;;;;;;10449643;28;20041;-26
2021/08/01 13:39:48;;;;;;;0.00;0.00;;;;;;;;;;10446894;28;20099;-25
2021/08/01 13:45:04;;;;;;;0.00;0.00;;;;;;;;;;10447727;28;20076;-26
2021/08/01 13:50:10;;;;;;;0.28;0.00;;;;;;;;;;10436097;28;20037;-27
2021/08/01 13:55:12;;;;;;;0.00;0.00;;;;;;;;;;10438812;28;20131;-25
2021/08/01 14:00:16;;;;;;;0.00;0.00;;;;;;;;;;10449210;28;20482;-25
2021/08/01 14:05:20;;;;;;;0.00;0.00;;;;;;;;;;10450799;28;20037;-26
2021/08/01 14:10:23;;;;;;;0.00;0.00;;;;;;;;;;10433116;28;20153;-25
2021/08/01 14:15:25;;;;;;;0.00;0.00;;;;;;;;;;10435654;28;20103;-25
2021/08/01 14:20:30;;;;;;;0.00;0.00;;;;;;;;;;10435440;28;20053;-25
2021/08/01 14:25:33;;;;;;;0.00;0.00;;;;;;;;;;10432390;28;20061;-25
2021/08/01 14:30:37;;;;;;;0.00;0.00;;;;;;;;;;10434284;28;20072;-26
2021/08/01 14:35:42;;;;;;;0.00;0.00;;;;;;;;;;10432803;28;20045;-25
2021/08/01 14:40:45;;;;;;;0.00;0.00;;;;;;;;;;10432369;28;20049;-26
2021/08/01 14:45:49;;;;;;;0.00;0.00;;;;;;;;;;10433850;28;20044;-25
2021/08/01 14:50:53;;;;;;;0.00;0.00;;;;;;;;;;10433947;28;20243;-25
2021/08/01 14:55:58;;;;;;;0.00;0.00;;;;;;;;;;10433795;28;20083;-25
2021/08/01 15:01:04;;;;;;;0.00;0.00;;;;;;;;;;10432085;28;20069;-25
2021/08/01 15:06:08;;;;;;;0.00;0.00;;;;;;;;;;10431398;28;20048;-24
2021/08/01 15:11:13;;;;;;;0.13;0.08;;;;;;;;;;10432852;28;20051;-25
2021/08/01 15:16:15;;;;;;;0.00;0.00;;;;;;;;;;10433766;28;20497;-25
2021/08/01 15:21:20;;;;;;;0.25;0.00;;;;;;;;;;10433524;28;20354;-25
2021/08/01 15:26:24;;;;;;;0.10;0.00;;;;;;;;;;10438301;28;20053;-25
2021/08/01 15:31:27;;;;;;;0.10;0.03;;;;;;;;;;10427474;28;20155;-24
2021/08/01 15:36:34;;;;;;;0.00;0.00;;;;;;;;;;10427643;28;20055;-24
2021/08/01 15:41:37;;;;;;;0.00;0.00;;;;;;;;;;10432133;28;20082;-25
2021/08/01 15:46:40;;;;;;;0.00;0.00;;;;;;;;;;10430924;28;20107;-24
2021/08/01 15:51:45;;;;;;;0.00;0.00;;;;;;;;;;10421902;28;20401;-24
2021/08/01 15:56:50;;;;;;;0.00;0.00;;;;;;;;;;10431426;28;20049;-24
2021/08/01 16:01:55;;;;;;;0.60;0.00;;;;;;;;;;10434552;28;20037;-25
2021/08/01 16:07:00;;;;;;;0.00;0.00;;;;;;;;;;10429128;28;20395;-27
2021/08/01 16:12:05;;;;;;;0.00;0.00;;;;;;;;;;10429244;28;20056;-25
2021/08/01 16:17:15;;;;;;;0.00;0.00;;;;;;;;;;10431185;28;20504;-26
2021/08/01 16:22:20;;;;;;;0.00;0.00;;;;;;;;;;10429276;28;20128;-25
2021/08/01 16:27:23;;;;;;;0.05;0.00;;;;;;;;;;10430494;28;20057;-25
2021/08/01 16:32:26;;;;;;;0.00;0.00;;;;;;;;;;10430856;28;20540;-25
2021/08/01 16:37:30;;;;;;;0.00;0.00;;;;;;;;;;10430462;28;20531;-25
2021/08/01 16:42:37;;;;;;;0.10;0.00;;;;;;;;;;10427210;28;20123;-25
2021/08/01 16:47:44;;;;;;;0.20;0.00;;;;;;;;;;10429200;28;20044;-25
2021/08/01 16:52:49;;;;;;;0.00;0.00;;;;;;;;;;10431076;28;20057;-25
2021/08/01 16:57:58;;;;;;;0.00;0.00;;;;;;;;;;10429978;28;20055;-26
2021/08/01 17:03:05;;;;;;;0.00;0.00;;;;;;;;;;10427232;28;20041;-25
2021/08/01 17:08:11;;;;;;;0.17;0.00;;;;;;;;;;10426647;28;20487;-26
2021/08/01 17:13:16;;;;;;;0.00;0.00;;;;;;;;;;10429759;28;20052;-25
2021/08/01 17:18:20;;;;;;;0.10;0.08;;;;;;;;;;10428784;28;20406;-26
2021/08/01 17:23:24;;;;;;;0.00;0.00;;;;;;;;;;10428899;28;20147;-26
2021/08/01 17:28:27;;;;;;;0.10;0.10;;;;;;;;;;10430233;28;20131;-26
2021/08/01 17:33:31;;;;;;;0.10;0.10;;;;;;;;;;10433704;28;20481;-26
2021/08/01 17:38:39;;;;;;;0.00;0.00;;;;;;;;;;10438042;28;20068;-26
2021/08/01 17:43:45;;;;;;;0.00;0.00;;;;;;;;;;10435722;28;20067;-25
2021/08/01 17:48:48;;;;;;;0.10;0.00;;;;;;;;;;10433809;28;20524;-27
2021/08/01 17:53:53;;;;;;;0.03;0.03;;;;;;;;;;10436264;28;20541;-25
2021/08/01 17:58:56;;;;;;;0.03;0.00;;;;;;;;;;10434743;28;20110;-27
2021/08/01 18:03:59;;;;;;;0.17;0.08;;;;;;;;;;10435650;28;20049;-28
2021/08/01 18:09:06;;;;;;;0.10;0.10;;;;;;;;;;10434116;28;20044;-26
2021/08/01 18:14:14;;;;;;;0.10;0.00;;;;;;;;;;10436097;28;20041;-26
2021/08/01 18:19:19;;;;;;;0.47;0.00;;;;;;;;;;10433965;28;20059;-27
2021/08/01 18:24:28;;;;;;;0.00;0.00;;;;;;;;;;10435364;28;20456;-27
2021/08/01 18:29:36;;;;;;;0.03;0.03;;;;;;;;;;10432922;28;20065;-27
2021/08/01 18:34:41;;;;;;;0.03;0.03;;;;;;;;;;10436963;28;20543;-27
2021/08/01 18:39:45;;;;;;;0.00;0.00;;;;;;;;;;10436587;28;20045;-26
2021/08/01 18:44:51;;;;;;;0.00;0.00;;;;;;;;;;10434971;28;20425;-28
2021/08/01 18:49:55;;;;;;;0.00;0.00;;;;;;;;;;10435633;28;20051;-27
2021/08/01 18:55:00;;;;;;;0.00;0.00;;;;;;;;;;10437225;28;20055;-27
2021/08/01 19:00:03;;;;;;;0.10;0.10;;;;;;;;;;10433137;28;20048;-27
2021/08/01 19:05:07;;;;;;;0.10;0.10;;;;;;;;;;10434789;28;20045;-27
2021/08/01 19:10:12;;;;;;;0.00;0.00;;;;;;;;;;10435338;28;20486;-27
2021/08/01 19:15:15;;;;;;;0.10;0.10;;;;;;;;;;10435628;28;20049;-27
2021/08/01 19:20:18;;;;;;;0.00;0.00;;;;;;;;;;10430221;28;20510;-26
2021/08/01 19:25:23;;;;;;;0.00;0.00;;;;;;;;;;10432718;28;20581;-27
2021/08/01 19:30:26;;;;;;;0.00;0.00;;;;;;;;;;10435260;28;20033;-27
2021/08/01 19:35:31;;;;;;;0.20;0.10;;;;;;;;;;10434220;28;20041;-24
2021/08/01 19:40:36;;;;;;;0.10;0.10;;;;;;;;;;10437170;28;20041;-24
2021/08/01 19:45:41;;;;;;;0.10;0.10;;;;;;;;;;10435643;28;20135;-24
2021/08/01 19:50:43;;;;;;;0.00;0.00;;;;;;;;;;10436229;28;20053;-24
2021/08/01 19:55:48;;;;;;;0.10;0.10;;;;;;;;;;10433415;28;20041;-24
2021/08/01 20:00:50;;;;;;;0.00;0.00;;;;;;;;;;10428421;28;20052;-24
2021/08/01 20:05:53;;;;;;;0.05;0.05;;;;;;;;;;10433762;28;20116;-24
2021/08/01 20:10:57;;;;;;;0.10;0.10;;;;;;;;;;10425024;28;20041;-23
2021/08/01 20:16:00;;;;;;;0.10;0.10;;;;;;;;;;10435356;28;20751;-24
2021/08/01 20:21:04;;;;;;;0.10;0.10;;;;;;;;;;10428479;28;20061;-24
2021/08/01 20:26:08;;;;;;;0.10;0.10;;;;;;;;;;10434348;28;20080;-24
2021/08/01 20:31:11;;;;;;;0.10;0.10;;;;;;;;;;10432977;28;20045;-24
2021/08/01 20:36:15;;;;;;;0.00;0.00;;;;;;;;;;10433927;28;20489;-24
2021/08/01 20:41:19;;;;;;;0.10;0.10;;;;;;;;;;10432728;28;20071;-24
2021/08/01 20:46:22;;;;;;;0.10;0.10;;;;;;;;;;10432730;28;20041;-23
2021/08/01 20:51:30;;;;;;;0.10;0.10;;;;;;;;;;10433456;28;20048;-24
2021/08/01 20:56:34;;;;;;;0.03;0.00;;;;;;;;;;10433983;28;20045;-25
2021/08/01 21:01:37;;;;;;;0.10;0.10;;;;;;;;;;10431288;28;20513;-24
2021/08/01 21:06:40;;;;;;;0.30;0.10;;;;;;;;;;10435184;28;20498;-24
2021/08/01 21:11:44;;;;;;;0.00;0.00;;;;;;;;;;10438521;28;20041;-24
2021/08/01 21:16:46;;;;;;;0.10;0.10;;;;;;;;;;10440510;28;20505;-23
2021/08/01 21:21:49;;;;;;;0.10;0.10;;;;;;;;;;10441025;28;20140;-24
2021/08/01 21:26:53;;;;;;;0.10;0.10;;;;;;;;;;10441385;28;20059;-24
2021/08/01 21:31:56;;;;;;;0.10;0.10;;;;;;;;;;10440447;28;20051;-24
2021/08/01 21:36:58;;;;;;;0.00;0.00;;;;;;;;;;10440224;28;20091;-23
2021/08/01 21:42:03;;;;;;;0.10;0.10;;;;;;;;;;10441328;28;20048;-24
2021/08/01 21:47:06;;;;;;;0.10;0.10;;;;;;;;;;10440809;28;20051;-24
2021/08/01 21:52:08;;;;;;;0.00;0.00;;;;;;;;;;10438770;28;20053;-24
2021/08/01 21:57:12;;;;;;;0.10;0.10;;;;;;;;;;10438515;28;20033;-24
2021/08/01 22:02:19;;;;;;;0.10;0.10;;;;;;;;;;10439503;28;20558;-24
2021/08/01 22:07:22;;;;;;;0.13;0.10;;;;;;;;;;10436731;28;20124;-24
2021/08/01 22:12:26;;;;;;;0.20;0.15;;;;;;;;;;10437577;28;20049;-23
2021/08/01 22:17:29;;;;;;;0.10;0.10;;;;;;;;;;10438614;28;20045;-24
2021/08/01 22:22:32;;;;;;;0.40;0.10;;;;;;;;;;10437955;28;20057;-24
2021/08/01 22:27:37;;;;;;;0.25;0.10;;;;;;;;;;10437150;28;20506;-24
2021/08/01 22:32:41;;;;;;;0.10;0.10;;;;;;;;;;10437423;28;20052;-24
2021/08/01 22:37:49;;;;;;;0.10;0.10;;;;;;;;;;10434815;28;20033;-24
2021/08/01 22:42:53;;;;;;;0.10;0.10;;;;;;;;;;10438692;28;20049;-24
2021/08/01 22:47:56;;;;;;;0.10;0.10;;;;;;;;;;10437912;28;20474;-24
2021/08/01 22:53:00;;;;;;;0.10;0.10;;;;;;;;;;10438422;28;20052;-24
2021/08/01 22:58:04;;;;;;;0.15;0.10;;;;;;;;;;10436274;28;20053;-24
2021/08/01 23:03:11;;;;;;;0.10;0.10;;;;;;;;;;10435788;28;20132;-24
2021/08/01 23:08:19;;;;;;;0.10;0.10;;;;;;;;;;10432663;28;20120;-24
2021/08/01 23:13:23;;;;;;;0.10;0.10;;;;;;;;;;10437479;28;20414;-24
2021/08/01 23:18:29;;;;;;;0.28;0.20;;;;;;;;;;10436583;28;20375;-24
2021/08/01 23:23:32;;;;;;;0.10;0.10;;;;;;;;;;10437106;28;20057;-24
2021/08/01 23:28:37;;;;;;;0.10;0.10;;;;;;;;;;10436180;28;20045;-24
2021/08/01 23:33:41;;;;;;;0.10;0.10;;;;;;;;;;10433201;28;20056;-24
2021/08/01 23:38:45;;;;;;;0.10;0.10;;;;;;;;;;10434538;28;20041;-24
2021/08/01 23:43:50;;;;;;;0.10;0.10;;;;;;;;;;10434155;28;20044;-24
2021/08/01 23:48:53;;;;;;;0.52;0.20;;;;;;;;;;10432260;28;20531;-24
2021/08/01 23:54:02;;;;;;;0.10;0.10;;;;;;;;;;10436360;28;20041;-23
2021/08/01 23:59:13;;;;;;;0.10;0.10;;;;;;;;;;10434974;28;20045;-24
